Wetterdaten: Dienstag, 11.09.2012
Datum Zeit Temperatur Luftfeuchte Luftdruck Regen Wind Richtung Richtung Sonnenschein Taupunkt Windchill
11.09.2012 00:03 16,1 C 53 % 1014,7 hPa 0,0 l/m 0,0 km/h (0 Bft) S 180 0 min 6,5 C 16,1 C
11.09.2012 00:08 15,9 C 54 % 1014,7 hPa 0,0 l/m 0,0 km/h (0 Bft) S 180 0 min 6,6 C 15,9 C
11.09.2012 00:13 15,8 C 55 % 1014,7 hPa 0,0 l/m 0,0 km/h (0 Bft) S 180 0 min 6,8 C 15,8 C
11.09.2012 00:18 15,8 C 55 % 1014,7 hPa 0,0 l/m 0,0 km/h (0 Bft) S 180 0 min 6,8 C 15,8 C
11.09.2012 00:23 15,7 C 55 % 1014,7 hPa 0,0 l/m 0,0 km/h (0 Bft) S 180 0 min 6,7 C 15,7 C
11.09.2012 00:29 15,6 C 55 % 1014,7 hPa 0,0 l/m 0,0 km/h (0 Bft) S 180 0 min 6,6 C 15,6 C
11.09.2012 00:34 15,6 C 55 % 1014,7 hPa 0,0 l/m 0,0 km/h (0 Bft) S 180 0 min 6,6 C 15,6 C
11.09.2012 00:39 15,5 C 56 % 1014,7 hPa 0,0 l/m 0,0 km/h (0 Bft) S 180 0 min 6,8 C 15,5 C
11.09.2012 00:44 15,4 C 56 % 1014,7 hPa 0,0 l/m 0,0 km/h (0 Bft) S 180 0 min 6,7 C 15,4 C
11.09.2012 00:49 15,3 C 56 % 1014,7 hPa 0,0 l/m 0,0 km/h (0 Bft) S 180 0 min 6,6 C 15,3 C
11.09.2012 00:54 15,2 C 56 % 1014,7 hPa 0,0 l/m 0,0 km/h (0 Bft) S 180 0 min 6,5 C 15,2 C
11.09.2012 00:59 15,1 C 56 % 1014,7 hPa 0,0 l/m 0,0 km/h (0 Bft) S 180 0 min 6,4 C 15,1 C
11.09.2012 01:04 15,0 C 56 % 1014,7 hPa 0,0 l/m 0,0 km/h (0 Bft) S 180 0 min 6,3 C 15,0 C
11.09.2012 01:09 14,9 C 57 % 1014,7 hPa 0,0 l/m 0,0 km/h (0 Bft) S 180 0 min 6,5 C 14,9 C
11.09.2012 01:14 14,8 C 57 % 1014,7 hPa 0,0 l/m 0,0 km/h (0 Bft) S 180 0 min 6,4 C 14,8 C
11.09.2012 01:19 14,7 C 58 % 1014,7 hPa 0,0 l/m 0,0 km/h (0 Bft) S 180 0 min 6,5 C 14,7 C
11.09.2012 01:24 14,7 C 58 % 1014,7 hPa 0,0 l/m 0,0 km/h (0 Bft) S 180 0 min 6,5 C 14,7 C
11.09.2012 01:29 14,6 C 58 % 1014,7 hPa 0,0 l/m 0,0 km/h (0 Bft) S 180 0 min 6,4 C 14,6 C
11.09.2012 01:34 14,5 C 58 % 1014,7 hPa 0,0 l/m 0,0 km/h (0 Bft) S 180 0 min 6,3 C 14,5 C
11.09.2012 01:39 14,5 C 58 % 1014,7 hPa 0,0 l/m 0,0 km/h (0 Bft) S 180 0 min 6,3 C 14,5 C
11.09.2012 01:44 14,4 C 59 % 1014,7 hPa 0,0 l/m 0,0 km/h (0 Bft) S 180 0 min 6,5 C 14,4 C
11.09.2012 01:49 14,3 C 59 % 1014,7 hPa 0,0 l/m 0,0 km/h (0 Bft) S 180 0 min 6,4 C 14,3 C
11.09.2012 01:54 14,3 C 59 % 1014,7 hPa 0,0 l/m 0,0 km/h (0 Bft) S 180 0 min 6,4 C 14,3 C
11.09.2012 01:59 14,3 C 59 % 1014,7 hPa 0,0 l/m 0,0 km/h (0 Bft) S 180 0 min 6,4 C 14,3 C
11.09.2012 02:04 14,2 C 60 % 1014,7 hPa 0,0 l/m 0,0 km/h (0 Bft) S 180 0 min 6,5 C 14,2 C
11.09.2012 02:09 14,2 C 59 % 1014,7 hPa 0,0 l/m 0,0 km/h (0 Bft) S 180 0 min 6,3 C 14,2 C
11.09.2012 02:14 14,1 C 60 % 1014,7 hPa 0,0 l/m 0,0 km/h (0 Bft) S 180 0 min 6,5 C 14,1 C
11.09.2012 02:19 14,1 C 60 % 1013,7 hPa 0,0 l/m 0,0 km/h (0 Bft) S 180 0 min 6,5 C 14,1 C
11.09.2012 02:24 14,1 C 60 % 1013,7 hPa 0,0 l/m 0,0 km/h (0 Bft) S 180 0 min 6,5 C 14,1 C
11.09.2012 02:29 14,1 C 61 % 1013,7 hPa 0,0 l/m 0,0 km/h (0 Bft) S 180 0 min 6,7 C 14,1 C
11.09.2012 02:34 14,0 C 61 % 1013,7 hPa 0,0 l/m 0,0 km/h (0 Bft) S 180 0 min 6,6 C 14,0 C
11.09.2012 02:39 13,9 C 62 % 1013,7 hPa 0,0 l/m 0,0 km/h (0 Bft) S 180 0 min 6,7 C 13,9 C
11.09.2012 02:44 13,9 C 63 % 1013,7 hPa 0,0 l/m 0,0 km/h (0 Bft) S 180 0 min 7,0 C 13,9 C
11.09.2012 02:49 13,7 C 63 % 1013,7 hPa 0,0 l/m 0,0 km/h (0 Bft) S 185 0 min 6,8 C 13,7 C
11.09.2012 02:54 13,6 C 64 % 1013,7 hPa 0,0 l/m 0,0 km/h (0 Bft) S 180 0 min 6,9 C 13,6 C
11.09.2012 02:59 13,5 C 64 % 1013,7 hPa 0,0 l/m 0,0 km/h (0 Bft) SW 220 0 min 6,8 C 13,5 C
11.09.2012 03:04 13,5 C 65 % 1013,7 hPa 0,0 l/m 0,1 km/h (0 Bft) S-SW 200 0 min 7,1 C 13,5 C
11.09.2012 03:09 13,6 C 65 % 1013,7 hPa 0,0 l/m 0,0 km/h (0 Bft) S 185 0 min 7,1 C 13,6 C
11.09.2012 03:14 13,6 C 65 % 1013,7 hPa 0,0 l/m 0,0 km/h (0 Bft) S 185 0 min 7,1 C 13,6 C
11.09.2012 03:19 13,4 C 64 % 1013,7 hPa 0,0 l/m 0,0 km/h (0 Bft) S 185 0 min 6,7 C 13,4 C
11.09.2012 03:24 13,4 C 65 % 1013,7 hPa 0,0 l/m 0,0 km/h (0 Bft) S 185 0 min 7,0 C 13,4 C
11.09.2012 03:29 13,2 C 65 % 1013,7 hPa 0,0 l/m 0,0 km/h (0 Bft) S 185 0 min 6,8 C 13,2 C
11.09.2012 03:34 13,2 C 65 % 1013,7 hPa 0,0 l/m 0,0 km/h (0 Bft) S 190 0 min 6,8 C 13,2 C
11.09.2012 03:39 13,2 C 65 % 1013,7 hPa 0,0 l/m 0,0 km/h (0 Bft) S 190 0 min 6,8 C 13,2 C
11.09.2012 03:44 13,3 C 65 % 1013,7 hPa 0,0 l/m 0,0 km/h (0 Bft) S 185 0 min 6,9 C 13,3 C
11.09.2012 03:49 13,3 C 65 % 1013,7 hPa 0,0 l/m 0,0 km/h (0 Bft) S 185 0 min 6,9 C 13,3 C
11.09.2012 03:54 13,3 C 65 % 1013,7 hPa 0,0 l/m 0,0 km/h (0 Bft) S 185 0 min 6,9 C 13,3 C
11.09.2012 03:59 13,2 C 64 % 1013,7 hPa 0,0 l/m 0,0 km/h (0 Bft) S 185 0 min 6,5 C 13,2 C
11.09.2012 04:04 13,2 C 65 % 1013,7 hPa 0,0 l/m 0,0 km/h (0 Bft) S 185 0 min 6,8 C 13,2 C
11.09.2012 04:09 13,2 C 66 % 1013,7 hPa 0,0 l/m 0,0 km/h (0 Bft) S 185 0 min 7,0 C 13,2 C
11.09.2012 04:14 13,2 C 66 % 1013,7 hPa 0,0 l/m 0,0 km/h (0 Bft) S 185 0 min 7,0 C 13,2 C
11.09.2012 04:19 13,3 C 66 % 1013,7 hPa 0,0 l/m 0,0 km/h (0 Bft) S 185 0 min 7,1 C 13,3 C
11.09.2012 04:24 13,4 C 66 % 1013,7 hPa 0,0 l/m 0,0 km/h (0 Bft) S 185 0 min 7,2 C 13,4 C
11.09.2012 04:28 13,5 C 66 % 1013,7 hPa 0,0 l/m 0,0 km/h (0 Bft) S 185 0 min 7,3 C 13,5 C
11.09.2012 04:33 13,6 C 66 % 1013,7 hPa 0,0 l/m 0,0 km/h (0 Bft) S 185 0 min 7,4 C 13,6 C
11.09.2012 04:38 13,6 C 66 % 1013,7 hPa 0,0 l/m 0,0 km/h (0 Bft) S 185 0 min 7,4 C 13,6 C
11.09.2012 04:43 13,7 C 66 % 1013,7 hPa 0,0 l/m 0,0 km/h (0 Bft) S 185 0 min 7,5 C 13,7 C
11.09.2012 04:48 13,7 C 66 % 1013,7 hPa 0,0 l/m 0,0 km/h (0 Bft) S 185 0 min 7,5 C 13,7 C
11.09.2012 04:53 13,7 C 66 % 1013,7 hPa 0,0 l/m 0,0 km/h (0 Bft) S 185 0 min 7,5 C 13,7 C
11.09.2012 04:58 13,6 C 66 % 1013,7 hPa 0,0 l/m 0,0 km/h (0 Bft) S 185 0 min 7,4 C 13,6 C
11.09.2012 05:03 13,7 C 66 % 1013,7 hPa 0,0 l/m 0,0 km/h (0 Bft) S 185 0 min 7,5 C 13,7 C
11.09.2012 05:08 13,7 C 66 % 1013,7 hPa 0,0 l/m 0,0 km/h (0 Bft) S 185 0 min 7,5 C 13,7 C
11.09.2012 05:13 13,7 C 66 % 1013,7 hPa 0,0 l/m 0,0 km/h (0 Bft) S 185 0 min 7,5 C 13,7 C
11.09.2012 05:18 13,7 C 66 % 1013,7 hPa 0,0 l/m 0,0 km/h (0 Bft) S 185 0 min 7,5 C 13,7 C
11.09.2012 05:23 13,6 C 66 % 1013,7 hPa 0,0 l/m 0,0 km/h (0 Bft) S 185 0 min 7,4 C 13,6 C
11.09.2012 05:28 13,6 C 66 % 1012,7 hPa 0,0 l/m 0,0 km/h (0 Bft) S 185 0 min 7,4 C 13,6 C
11.09.2012 05:33 13,6 C 66 % 1012,7 hPa 0,0 l/m 0,0 km/h (0 Bft) S 185 0 min 7,4 C 13,6 C
11.09.2012 05:38 13,5 C 66 % 1012,7 hPa 0,0 l/m 0,0 km/h (0 Bft) S 185 0 min 7,3 C 13,5 C
11.09.2012 05:43 13,5 C 66 % 1012,7 hPa 0,0 l/m 0,0 km/h (0 Bft) S 185 0 min 7,3 C 13,5 C
11.09.2012 05:48 13,6 C 66 % 1012,7 hPa 0,0 l/m 0,0 km/h (0 Bft) S 185 0 min 7,4 C 13,6 C
11.09.2012 05:53 13,6 C 66 % 1012,7 hPa 0,0 l/m 0,0 km/h (0 Bft) S 185 0 min 7,4 C 13,6 C
11.09.2012 05:58 13,7 C 66 % 1012,7 hPa 0,0 l/m 0,0 km/h (0 Bft) S 185 0 min 7,5 C 13,7 C
11.09.2012 06:03 13,7 C 66 % 1012,7 hPa 0,0 l/m 0,0 km/h (0 Bft) S 185 0 min 7,5 C 13,7 C
11.09.2012 06:08 13,6 C 67 % 1012,7 hPa 0,0 l/m 0,0 km/h (0 Bft) S 185 0 min 7,6 C 13,6 C
11.09.2012 06:13 13,6 C 67 % 1012,7 hPa 0,0 l/m 0,0 km/h (0 Bft) S 185 0 min 7,6 C 13,6 C
11.09.2012 06:18 13,7 C 67 % 1012,7 hPa 0,0 l/m 0,0 km/h (0 Bft) S 185 0 min 7,7 C 13,7 C
11.09.2012 06:23 13,8 C 67 % 1012,7 hPa 0,0 l/m 0,0 km/h (0 Bft) S 185 0 min 7,8 C 13,8 C
11.09.2012 06:28 13,8 C 67 % 1012,7 hPa 0,0 l/m 0,0 km/h (0 Bft) S 185 0 min 7,8 C 13,8 C
11.09.2012 06:33 13,8 C 67 % 1012,7 hPa 0,0 l/m 0,0 km/h (0 Bft) S 185 0 min 7,8 C 13,8 C
11.09.2012 06:38 13,8 C 67 % 1012,7 hPa 0,0 l/m 0,0 km/h (0 Bft) S 185 0 min 7,8 C 13,8 C
11.09.2012 06:43 13,8 C 67 % 1012,7 hPa 0,0 l/m 0,0 km/h (0 Bft) S 185 0 min 7,8 C 13,8 C
11.09.2012 06:48 13,9 C 67 % 1013,7 hPa 0,0 l/m 0,0 km/h (0 Bft) S 185 0 min 7,9 C 13,9 C
11.09.2012 06:54 14,0 C 66 % 1013,7 hPa 0,0 l/m 0,0 km/h (0 Bft) S 185 0 min 7,7 C 14,0 C
11.09.2012 06:59 14,0 C 67 % 1013,7 hPa 0,0 l/m 0,0 km/h (0 Bft) S 185 0 min 8,0 C 14,0 C
11.09.2012 07:04 14,0 C 67 % 1013,7 hPa 0,0 l/m 0,0 km/h (0 Bft) S 185 0 min 8,0 C 14,0 C
11.09.2012 07:09 14,0 C 67 % 1013,7 hPa 0,0 l/m 0,0 km/h (0 Bft) S 185 0 min 8,0 C 14,0 C
11.09.2012 07:14 14,1 C 67 % 1013,7 hPa 0,0 l/m 0,0 km/h (0 Bft) S 185 0 min 8,1 C 14,1 C
11.09.2012 07:19 14,1 C 67 % 1013,7 hPa 0,0 l/m 0,0 km/h (0 Bft) S 185 0 min 8,1 C 14,1 C
11.09.2012 07:24 14,2 C 67 % 1013,7 hPa 0,0 l/m 0,0 km/h (0 Bft) S 185 0 min 8,2 C 14,2 C
11.09.2012 07:29 14,3 C 67 % 1013,7 hPa 0,0 l/m 0,0 km/h (0 Bft) S 185 0 min 8,3 C 14,3 C
11.09.2012 07:34 14,4 C 67 % 1013,7 hPa 0,0 l/m 0,0 km/h (0 Bft) S 185 0 min 8,4 C 14,4 C
11.09.2012 07:39 14,4 C 67 % 1013,7 hPa 0,0 l/m 0,0 km/h (0 Bft) S 185 0 min 8,4 C 14,4 C
11.09.2012 07:44 14,4 C 67 % 1013,7 hPa 0,0 l/m 0,0 km/h (0 Bft) S 190 0 min 8,4 C 14,4 C
11.09.2012 07:49 14,5 C 68 % 1013,7 hPa 0,0 l/m 0,0 km/h (0 Bft) S-SW 195 0 min 8,7 C 14,5 C
11.09.2012 07:54 14,5 C 68 % 1013,7 hPa 0,0 l/m 0,0 km/h (0 Bft) S 185 0 min 8,7 C 14,5 C
11.09.2012 07:59 14,7 C 68 % 1013,7 hPa 0,0 l/m 0,0 km/h (0 Bft) S 185 0 min 8,9 C 14,7 C
11.09.2012 08:04 14,7 C 68 % 1013,7 hPa 0,4 l/m 0,0 km/h (0 Bft) S 185 0 min 8,9 C 14,7 C
11.09.2012 08:09 14,6 C 68 % 1013,7 hPa 0,0 l/m 0,0 km/h (0 Bft) S 185 0 min 8,8 C 14,6 C
11.09.2012 08:14 14,6 C 69 % 1012,7 hPa 0,4 l/m 0,0 km/h (0 Bft) S 185 0 min 9,0 C 14,6 C
11.09.2012 08:19 14,3 C 72 % 1012,7 hPa 0,0 l/m 0,1 km/h (0 Bft) S-SO 160 0 min 9,3 C 14,3 C
11.09.2012 08:24 14,3 C 72 % 1012,7 hPa 0,0 l/m 0,0 km/h (0 Bft) SO 125 0 min 9,3 C 14,3 C
11.09.2012 08:29 14,4 C 72 % 1012,7 hPa 0,0 l/m 0,0 km/h (0 Bft) SO 125 0 min 9,4 C 14,4 C
11.09.2012 08:34 14,5 C 72 % 1012,7 hPa 0,0 l/m 0,0 km/h (0 Bft) O-SO 120 0 min 9,5 C 14,5 C
11.09.2012 08:39 14,6 C 72 % 1012,7 hPa 0,0 l/m 0,0 km/h (0 Bft) O-SO 120 0 min 9,6 C 14,6 C
11.09.2012 08:44 14,5 C 74 % 1013,7 hPa 0,0 l/m 6,8 km/h (2 Bft) S 170 0 min 9,9 C 14,3 C
11.09.2012 08:48 14,5 C 77 % 1013,7 hPa 0,0 l/m 7,6 km/h (2 Bft) W-NW 285 0 min 10,5 C 13,8 C
11.09.2012 08:53 14,3 C 78 % 1013,7 hPa 0,0 l/m 1,4 km/h (1 Bft) W 270 0 min 10,5 C 14,3 C
11.09.2012 08:58 14,2 C 78 % 1013,7 hPa 0,0 l/m 0,3 km/h (0 Bft) W-SW 255 0 min 10,4 C 14,2 C
11.09.2012 09:04 14,2 C 77 % 1013,7 hPa 1,1 l/m 0,0 km/h (0 Bft) W-SW 240 0 min 10,2 C 14,2 C
11.09.2012 09:09 14,3 C 76 % 1013,7 hPa 0,0 l/m 0,0 km/h (0 Bft) SW 230 0 min 10,1 C 14,3 C
11.09.2012 09:14 14,3 C 76 % 1013,7 hPa 0,0 l/m 0,0 km/h (0 Bft) SW 235 0 min 10,1 C 14,3 C
11.09.2012 09:19 14,5 C 77 % 1013,7 hPa 0,0 l/m 0,0 km/h (0 Bft) SW 230 0 min 10,5 C 14,5 C
11.09.2012 09:23 14,7 C 77 % 1013,7 hPa 0,0 l/m 0,0 km/h (0 Bft) O-SO 115 0 min 10,7 C 14,7 C
11.09.2012 09:28 15,0 C 76 % 1013,7 hPa 0,0 l/m 0,0 km/h (0 Bft) O-SO 110 0 min 10,8 C 15,0 C
11.09.2012 09:33 15,1 C 76 % 1013,7 hPa 0,0 l/m 0,0 km/h (0 Bft) O-SO 110 0 min 10,9 C 15,1 C
11.09.2012 09:39 15,2 C 77 % 1013,7 hPa 0,0 l/m 0,0 km/h (0 Bft) SO 125 0 min 11,2 C 15,2 C
11.09.2012 09:44 15,4 C 77 % 1013,7 hPa 0,4 l/m 0,1 km/h (0 Bft) O-SO 120 0 min 11,4 C 15,4 C
11.09.2012 09:49 15,6 C 77 % 1013,7 hPa 0,0 l/m 0,0 km/h (0 Bft) SO 130 0 min 11,6 C 15,6 C
11.09.2012 09:54 15,6 C 77 % 1012,7 hPa 0,0 l/m 0,0 km/h (0 Bft) SO 140 0 min 11,6 C 15,6 C
11.09.2012 09:58 15,8 C 77 % 1012,7 hPa 0,0 l/m 0,0 km/h (0 Bft) SO 140 0 min 11,8 C 15,8 C
11.09.2012 10:03 15,9 C 77 % 1012,7 hPa 0,0 l/m 0,0 km/h (0 Bft) SO 140 0 min 11,9 C 15,9 C
11.09.2012 10:08 16,2 C 76 % 1013,7 hPa 0,0 l/m 0,0 km/h (0 Bft) SO 140 0 min 12,0 C 16,2 C
11.09.2012 10:14 16,4 C 76 % 1013,7 hPa 0,0 l/m 0,0 km/h (0 Bft) SO 145 0 min 12,2 C 16,4 C
11.09.2012 10:19 16,6 C 76 % 1013,7 hPa 0,0 l/m 0,0 km/h (0 Bft) SO 140 0 min 12,3 C 16,6 C
11.09.2012 10:24 16,5 C 75 % 1013,7 hPa 0,0 l/m 0,0 km/h (0 Bft) SO 140 0 min 12,1 C 16,5 C
11.09.2012 10:29 16,3 C 75 % 1013,7 hPa 0,0 l/m 0,3 km/h (0 Bft) W 270 0 min 11,9 C 16,3 C
11.09.2012 10:34 16,5 C 77 % 1013,7 hPa 0,0 l/m 5,9 km/h (2 Bft) W 280 0 min 12,5 C 16,5 C
11.09.2012 10:39 16,6 C 77 % 1013,7 hPa 0,4 l/m 0,0 km/h (0 Bft) W-SW 255 0 min 12,5 C 16,6 C
11.09.2012 10:43 16,6 C 76 % 1013,7 hPa 0,0 l/m 0,0 km/h (0 Bft) W 260 0 min 12,3 C 16,6 C
11.09.2012 10:48 16,7 C 75 % 1013,7 hPa 0,0 l/m 0,0 km/h (0 Bft) W 260 0 min 12,2 C 16,7 C
11.09.2012 10:53 16,8 C 75 % 1013,7 hPa 0,0 l/m 0,0 km/h (0 Bft) W 260 0 min 12,3 C 16,8 C
11.09.2012 10:58 17,0 C 74 % 1013,7 hPa 0,0 l/m 0,0 km/h (0 Bft) W 260 0 min 12,3 C 17,0 C
11.09.2012 11:03 17,1 C 74 % 1013,7 hPa 0,0 l/m 0,0 km/h (0 Bft) W 260 0 min 12,4 C 17,1 C
11.09.2012 11:08 17,1 C 74 % 1013,7 hPa 0,0 l/m 0,0 km/h (0 Bft) W 260 0 min 12,4 C 17,1 C
11.09.2012 11:13 17,2 C 74 % 1013,7 hPa 0,0 l/m 0,0 km/h (0 Bft) W-SW 255 0 min 12,5 C 17,2 C
11.09.2012 11:18 17,6 C 74 % 1013,7 hPa 0,0 l/m 0,0 km/h (0 Bft) W-SW 255 0 min 12,9 C 17,6 C
11.09.2012 11:23 17,9 C 74 % 1013,7 hPa 0,0 l/m 0,0 km/h (0 Bft) W-SW 255 0 min 13,2 C 17,9 C
11.09.2012 11:28 18,0 C 73 % 1013,7 hPa 0,0 l/m 0,0 km/h (0 Bft) S-SW 210 0 min 13,1 C 18,0 C
11.09.2012 11:33 18,0 C 73 % 1013,7 hPa 0,0 l/m 0,0 km/h (0 Bft) S-SW 200 0 min 13,1 C 18,0 C
11.09.2012 11:38 18,0 C 73 % 1013,7 hPa 0,0 l/m 0,0 km/h (0 Bft) S-SW 205 0 min 13,1 C 18,0 C
11.09.2012 11:43 18,3 C 74 % 1013,7 hPa 0,0 l/m 0,0 km/h (0 Bft) S-SW 205 0 min 13,6 C 18,3 C
11.09.2012 11:48 19,0 C 73 % 1013,7 hPa 0,0 l/m 0,0 km/h (0 Bft) S-SW 195 0 min 14,0 C 19,0 C
11.09.2012 11:53 19,8 C 74 % 1013,7 hPa 0,0 l/m 0,1 km/h (0 Bft) S 190 0 min 15,0 C 19,8 C
11.09.2012 11:58 20,2 C 73 % 1013,7 hPa 0,4 l/m 7,6 km/h (2 Bft) S-SO 165 0 min 15,2 C 19,7 C
11.09.2012 12:03 20,3 C 72 % 1013,7 hPa 0,0 l/m 0,3 km/h (0 Bft) S-SO 155 0 min 15,1 C 20,3 C
11.09.2012 12:08 20,4 C 72 % 1013,7 hPa 0,0 l/m 0,0 km/h (0 Bft) S-SW 210 0 min 15,2 C 20,4 C
11.09.2012 12:13 20,2 C 71 % 1012,7 hPa 0,0 l/m 10,1 km/h (2 Bft) S 185 0 min 14,8 C 18,8 C
11.09.2012 12:18 20,0 C 71 % 1012,7 hPa 0,0 l/m 8,5 km/h (2 Bft) S-SO 160 0 min 14,6 C 19,2 C
11.09.2012 12:23 19,9 C 72 % 1012,7 hPa 0,0 l/m 0,7 km/h (0 Bft) S 180 0 min 14,7 C 19,9 C
11.09.2012 12:28 20,0 C 70 % 1012,7 hPa 0,0 l/m 0,0 km/h (0 Bft) SO 130 0 min 14,4 C 20,0 C
11.09.2012 12:33 20,0 C 70 % 1012,7 hPa 0,0 l/m 0,8 km/h (0 Bft) SO 135 0 min 14,4 C 20,0 C
11.09.2012 12:38 20,3 C 71 % 1012,7 hPa 0,0 l/m 0,9 km/h (0 Bft) S-SO 160 0 min 14,9 C 20,3 C
11.09.2012 12:43 20,8 C 70 % 1012,7 hPa 0,0 l/m 0,0 km/h (0 Bft) S-SO 165 0 min 15,1 C 20,8 C
11.09.2012 12:48 21,1 C 69 % 1012,7 hPa 0,0 l/m 0,8 km/h (0 Bft) S 185 0 min 15,2 C 21,1 C
11.09.2012 12:53 21,2 C 69 % 1012,7 hPa 0,0 l/m 13,5 km/h (3 Bft) W 260 0 min 15,3 C 19,0 C
11.09.2012 12:59 21,1 C 68 % 1012,7 hPa 0,0 l/m 11,1 km/h (2 Bft) W 270 0 min 15,0 C 19,5 C
11.09.2012 13:04 21,1 C 68 % 1012,7 hPa 0,0 l/m 11,2 km/h (2 Bft) W-NW 290 0 min 15,0 C 19,5 C
11.09.2012 13:09 21,5 C 69 % 1012,7 hPa 0,0 l/m 7,0 km/h (2 Bft) S-SW 195 0 min 15,6 C 21,3 C
11.09.2012 13:14 21,9 C 68 % 1012,7 hPa 0,0 l/m 0,4 km/h (0 Bft) SW 230 0 min 15,7 C 21,9 C
11.09.2012 13:19 22,0 C 67 % 1012,7 hPa 0,0 l/m 12,8 km/h (3 Bft) W-SW 255 0 min 15,6 C 20,1 C
11.09.2012 13:24 22,3 C 67 % 1012,7 hPa 0,0 l/m 14,5 km/h (3 Bft) NW 325 0 min 15,9 C 20,1 C
11.09.2012 13:29 22,3 C 66 % 1012,7 hPa 0,0 l/m 14,5 km/h (3 Bft) NW 325 0 min 15,6 C 20,1 C
11.09.2012 13:34 23,2 C 65 % 1012,7 hPa 0,0 l/m 9,4 km/h (2 Bft) W 270 0 min 16,2 C 22,3 C
11.09.2012 13:39 23,5 C 65 % 1012,7 hPa 0,0 l/m 1,5 km/h (1 Bft) W 260 0 min 16,5 C 23,5 C
11.09.2012 13:44 23,1 C 62 % 1012,7 hPa 0,0 l/m 15,8 km/h (3 Bft) NW 315 0 min 15,4 C 20,9 C
11.09.2012 13:49 23,3 C 62 % 1011,7 hPa 0,0 l/m 14,8 km/h (3 Bft) W-NW 300 0 min 15,6 C 21,3 C
11.09.2012 13:54 23,3 C 62 % 1011,7 hPa 0,0 l/m 15,7 km/h (3 Bft) W 280 0 min 15,6 C 21,1 C
11.09.2012 13:59 24,1 C 60 % 1011,7 hPa 0,0 l/m 11,6 km/h (2 Bft) W 265 0 min 15,8 C 22,8 C
11.09.2012 14:04 24,5 C 59 % 1011,7 hPa 0,0 l/m 19,2 km/h (3 Bft) W-NW 295 0 min 15,9 C 22,1 C
11.09.2012 14:09 24,9 C 58 % 1011,7 hPa 0,0 l/m 10,3 km/h (2 Bft) W-NW 295 0 min 16,1 C 24,0 C
11.09.2012 14:14 24,4 C 56 % 1011,7 hPa 0,0 l/m 23,6 km/h (4 Bft) N-NW 335 0 min 15,0 C 21,5 C
11.09.2012 14:19 23,7 C 58 % 1011,7 hPa 0,0 l/m 13,3 km/h (3 Bft) W 280 0 min 14,9 C 22,0 C
11.09.2012 14:24 23,6 C 59 % 1011,7 hPa 0,0 l/m 9,5 km/h (2 Bft) W-NW 290 0 min 15,1 C 22,7 C
11.09.2012 14:29 23,5 C 59 % 1011,7 hPa 0,0 l/m 12,0 km/h (2 Bft) W-NW 290 0 min 15,0 C 22,1 C
11.09.2012 14:34 23,4 C 60 % 1011,7 hPa 0,0 l/m 13,6 km/h (3 Bft) W-NW 285 0 min 15,2 C 21,6 C
11.09.2012 14:39 23,4 C 60 % 1011,7 hPa 0,0 l/m 14,1 km/h (3 Bft) NW 320 0 min 15,2 C 21,5 C
11.09.2012 14:44 23,6 C 60 % 1011,7 hPa 0,0 l/m 17,1 km/h (3 Bft) NW 310 0 min 15,4 C 21,3 C
11.09.2012 14:49 23,7 C 60 % 1011,7 hPa 0,0 l/m 17,1 km/h (3 Bft) NW 310 0 min 15,5 C 21,4 C
11.09.2012 14:54 23,8 C 59 % 1011,7 hPa 0,0 l/m 16,5 km/h (3 Bft) NW 325 0 min 15,3 C 21,6 C
11.09.2012 14:59 23,7 C 59 % 1011,7 hPa 0,0 l/m 20,3 km/h (4 Bft) N-NW 340 0 min 15,2 C 20,9 C
11.09.2012 15:04 23,2 C 59 % 1011,7 hPa 0,0 l/m 19,9 km/h (4 Bft) N-NW 345 0 min 14,7 C 20,4 C
11.09.2012 15:09 22,9 C 60 % 1011,7 hPa 0,0 l/m 21,9 km/h (4 Bft) N-NW 340 0 min 14,7 C 19,7 C
11.09.2012 15:14 22,9 C 62 % 1010,7 hPa 0,0 l/m 14,9 km/h (3 Bft) NW 320 0 min 15,2 C 20,8 C
11.09.2012 15:19 22,9 C 61 % 1010,7 hPa 0,0 l/m 23,8 km/h (4 Bft) N-NW 340 0 min 15,0 C 19,5 C
11.09.2012 15:24 23,1 C 61 % 1010,7 hPa 0,0 l/m 23,3 km/h (4 Bft) N-NW 345 0 min 15,2 C 19,8 C
11.09.2012 15:29 23,1 C 60 % 1010,7 hPa 0,0 l/m 17,3 km/h (3 Bft) N-NW 340 0 min 14,9 C 20,6 C
11.09.2012 15:34 23,2 C 60 % 1010,7 hPa 0,0 l/m 23,7 km/h (4 Bft) N-NW 345 0 min 15,0 C 19,9 C
11.09.2012 15:39 23,1 C 59 % 1010,7 hPa 0,0 l/m 22,5 km/h (4 Bft) N-NW 340 0 min 14,6 C 19,9 C
11.09.2012 15:44 22,9 C 60 % 1010,7 hPa 0,0 l/m 21,8 km/h (4 Bft) N 350 0 min 14,7 C 19,7 C
11.09.2012 15:49 23,1 C 59 % 1010,7 hPa 0,0 l/m 28,5 km/h (4 Bft) N-NW 345 0 min 14,6 C 19,2 C
11.09.2012 15:54 23,0 C 58 % 1010,7 hPa 0,0 l/m 29,0 km/h (5 Bft) N 350 0 min 14,3 C 19,0 C
11.09.2012 15:59 22,6 C 60 % 1010,7 hPa 0,0 l/m 23,0 km/h (4 Bft) N 350 0 min 14,4 C 19,2 C
11.09.2012 16:04 22,6 C 60 % 1010,7 hPa 0,0 l/m 19,4 km/h (3 Bft) N-NW 345 0 min 14,4 C 19,7 C
11.09.2012 16:09 22,9 C 60 % 1010,7 hPa 0,0 l/m 28,2 km/h (4 Bft) N-NW 345 0 min 14,7 C 19,0 C
11.09.2012 16:14 22,8 C 59 % 1010,7 hPa 0,0 l/m 20,2 km/h (4 Bft) N-NW 340 0 min 14,4 C 19,8 C
11.09.2012 16:19 22,7 C 60 % 1010,7 hPa 0,0 l/m 21,1 km/h (4 Bft) NW 325 0 min 14,5 C 19,5 C
11.09.2012 16:24 22,6 C 60 % 1010,7 hPa 0,0 l/m 20,5 km/h (4 Bft) N-NW 335 0 min 14,4 C 19,5 C
11.09.2012 16:29 22,3 C 61 % 1010,7 hPa 0,0 l/m 17,0 km/h (3 Bft) NW 320 0 min 14,4 C 19,7 C
11.09.2012 16:34 21,8 C 62 % 1010,7 hPa 0,0 l/m 18,6 km/h (3 Bft) N 350 0 min 14,2 C 18,8 C
11.09.2012 16:39 21,7 C 63 % 1010,7 hPa 0,0 l/m 13,6 km/h (3 Bft) W-NW 290 0 min 14,3 C 19,6 C
11.09.2012 16:44 21,6 C 63 % 1010,7 hPa 0,0 l/m 20,8 km/h (4 Bft) N-NW 345 0 min 14,2 C 18,1 C
11.09.2012 16:49 21,7 C 62 % 1010,7 hPa 0,0 l/m 18,3 km/h (3 Bft) N-NW 330 0 min 14,1 C 18,7 C
11.09.2012 16:54 21,6 C 61 % 1010,7 hPa 0,0 l/m 21,3 km/h (4 Bft) N 350 0 min 13,7 C 18,1 C
11.09.2012 16:59 21,9 C 60 % 1010,7 hPa 0,0 l/m 21,2 km/h (4 Bft) N 350 0 min 13,8 C 18,5 C
11.09.2012 17:04 22,0 C 59 % 1010,7 hPa 0,0 l/m 21,2 km/h (4 Bft) N 350 0 min 13,6 C 18,6 C
11.09.2012 17:09 22,2 C 57 % 1010,7 hPa 0,0 l/m 27,0 km/h (4 Bft) N 350 0 min 13,3 C 18,1 C
11.09.2012 17:13 22,4 C 55 % 1010,7 hPa 0,0 l/m 29,0 km/h (5 Bft) N-NW 345 0 min 12,9 C 18,2 C
11.09.2012 17:18 22,2 C 52 % 1010,7 hPa 0,0 l/m 34,3 km/h (5 Bft) N 350 0 min 11,9 C 17,4 C
11.09.2012 17:23 21,7 C 54 % 1010,7 hPa 0,0 l/m 31,2 km/h (5 Bft) N 350 0 min 12,0 C 17,0 C
11.09.2012 17:28 21,6 C 55 % 1010,7 hPa 0,0 l/m 27,0 km/h (4 Bft) N 350 0 min 12,2 C 17,3 C
11.09.2012 17:33 21,2 C 56 % 1010,7 hPa 0,0 l/m 32,4 km/h (5 Bft) N 350 0 min 12,1 C 16,2 C
11.09.2012 17:38 21,1 C 56 % 1010,7 hPa 0,0 l/m 29,6 km/h (5 Bft) N 350 0 min 12,0 C 16,3 C
11.09.2012 17:43 21,1 C 56 % 1010,7 hPa 0,0 l/m 26,3 km/h (4 Bft) N 350 0 min 12,0 C 16,7 C
11.09.2012 17:48 20,9 C 57 % 1010,7 hPa 0,0 l/m 37,3 km/h (5 Bft) N 350 0 min 12,1 C 15,3 C
11.09.2012 17:53 20,6 C 56 % 1010,7 hPa 0,0 l/m 28,6 km/h (4 Bft) N-NW 345 0 min 11,5 C 15,7 C
11.09.2012 17:58 20,5 C 57 % 1010,7 hPa 0,0 l/m 28,0 km/h (4 Bft) N 350 0 min 11,7 C 15,7 C
11.09.2012 18:03 20,3 C 57 % 1010,7 hPa 0,0 l/m 23,8 km/h (4 Bft) N-NW 345 0 min 11,5 C 16,0 C
11.09.2012 18:08 20,1 C 58 % 1010,7 hPa 0,0 l/m 18,5 km/h (3 Bft) N 350 0 min 11,6 C 16,6 C
11.09.2012 18:13 19,9 C 60 % 1010,7 hPa 0,0 l/m 18,8 km/h (3 Bft) N-NW 340 0 min 11,9 C 16,3 C
11.09.2012 18:18 19,2 C 63 % 1011,7 hPa 0,0 l/m 30,3 km/h (5 Bft) N 350 0 min 12,0 C 13,6 C
11.09.2012 18:23 18,1 C 68 % 1011,7 hPa 0,0 l/m 24,8 km/h (4 Bft) N 350 0 min 12,1 C 12,8 C
11.09.2012 18:28 17,7 C 70 % 1011,7 hPa 0,0 l/m 29,4 km/h (5 Bft) N 355 0 min 12,2 C 11,6 C
11.09.2012 18:33 17,6 C 70 % 1011,7 hPa 0,0 l/m 23,7 km/h (4 Bft) N-NW 345 0 min 12,1 C 12,4 C
11.09.2012 18:39 17,3 C 71 % 1011,7 hPa 0,0 l/m 27,9 km/h (4 Bft) N 350 0 min 12,0 C 11,2 C
11.09.2012 18:44 17,0 C 71 % 1011,7 hPa 0,0 l/m 18,8 km/h (3 Bft) N 350 0 min 11,7 C 12,6 C
11.09.2012 18:49 16,9 C 72 % 1011,7 hPa 0,0 l/m 20,5 km/h (4 Bft) N 350 0 min 11,8 C 12,1 C
11.09.2012 18:54 16,7 C 72 % 1011,7 hPa 0,0 l/m 25,2 km/h (4 Bft) N 350 0 min 11,6 C 10,9 C
11.09.2012 18:59 16,4 C 72 % 1011,7 hPa 0,0 l/m 35,2 km/h (5 Bft) N 350 0 min 11,3 C 8,9 C
11.09.2012 19:03 16,3 C 72 % 1011,7 hPa 0,0 l/m 21,0 km/h (4 Bft) N-NW 345 0 min 11,2 C 11,2 C
11.09.2012 19:08 16,0 C 71 % 1011,7 hPa 0,0 l/m 22,0 km/h (4 Bft) N 350 0 min 10,7 C 10,6 C
11.09.2012 19:13 15,9 C 71 % 1011,7 hPa 0,0 l/m 14,7 km/h (3 Bft) N-NW 340 0 min 10,6 C 12,4 C
11.09.2012 19:19 15,8 C 71 % 1011,7 hPa 0,0 l/m 15,6 km/h (3 Bft) N-NW 335 0 min 10,6 C 12,0 C
11.09.2012 19:24 15,7 C 71 % 1011,7 hPa 0,0 l/m 11,3 km/h (2 Bft) N-NW 330 0 min 10,5 C 13,3 C
11.09.2012 19:29 15,2 C 72 % 1011,7 hPa 0,0 l/m 18,0 km/h (3 Bft) N 350 0 min 10,2 C 10,5 C
11.09.2012 19:34 14,8 C 73 % 1011,7 hPa 0,0 l/m 7,5 km/h (2 Bft) W-NW 290 0 min 10,0 C 14,2 C
11.09.2012 19:38 14,8 C 73 % 1011,7 hPa 0,0 l/m 1,5 km/h (1 Bft) W 270 0 min 10,0 C 14,8 C
11.09.2012 19:43 14,7 C 74 % 1011,7 hPa 0,0 l/m 9,2 km/h (2 Bft) NW 310 0 min 10,1 C 13,2 C
11.09.2012 19:48 14,6 C 74 % 1011,7 hPa 0,0 l/m 10,2 km/h (2 Bft) N-NW 340 0 min 10,0 C 12,6 C
11.09.2012 19:54 14,5 C 74 % 1011,7 hPa 0,0 l/m 11,6 km/h (2 Bft) NW 320 0 min 9,9 C 11,9 C
11.09.2012 19:59 14,4 C 75 % 1011,7 hPa 0,0 l/m 10,9 km/h (2 Bft) W-NW 290 0 min 10,0 C 12,0 C
11.09.2012 20:04 14,3 C 75 % 1011,7 hPa 0,0 l/m 14,4 km/h (3 Bft) NW 325 0 min 9,9 C 10,6 C
11.09.2012 20:09 14,3 C 76 % 1011,7 hPa 0,0 l/m 14,4 km/h (3 Bft) NW 325 0 min 10,1 C 10,6 C
11.09.2012 20:14 14,2 C 76 % 1011,7 hPa 0,0 l/m 17,3 km/h (3 Bft) NW 305 0 min 10,0 C 9,5 C
11.09.2012 20:18 14,2 C 76 % 1012,7 hPa 0,0 l/m 10,1 km/h (2 Bft) W-NW 300 0 min 10,0 C 12,2 C
11.09.2012 20:23 14,2 C 77 % 1012,7 hPa 0,0 l/m 16,6 km/h (3 Bft) NW 315 0 min 10,2 C 9,7 C
11.09.2012 20:29 14,2 C 76 % 1012,7 hPa 0,0 l/m 10,5 km/h (2 Bft) W-NW 300 0 min 10,0 C 12,0 C
11.09.2012 20:34 14,2 C 76 % 1012,7 hPa 0,0 l/m 7,4 km/h (2 Bft) W-NW 285 0 min 10,0 C 13,6 C
11.09.2012 20:39 14,2 C 76 % 1012,7 hPa 0,0 l/m 0,0 km/h (0 Bft) W 260 0 min 10,0 C 14,2 C
11.09.2012 20:44 14,2 C 76 % 1012,7 hPa 0,0 l/m 10,8 km/h (2 Bft) NW 310 0 min 10,0 C 11,9 C
11.09.2012 20:49 14,1 C 77 % 1012,7 hPa 0,0 l/m 12,0 km/h (2 Bft) NW 315 0 min 10,1 C 11,2 C
11.09.2012 20:53 14,0 C 77 % 1012,7 hPa 0,0 l/m 8,1 km/h (2 Bft) W-NW 295 0 min 10,0 C 13,0 C
11.09.2012 20:58 14,0 C 77 % 1012,7 hPa 0,4 l/m 12,0 km/h (2 Bft) W 280 0 min 10,0 C 11,1 C
11.09.2012 21:03 13,9 C 79 % 1012,7 hPa 0,0 l/m 5,6 km/h (1 Bft) W 270 0 min 10,3 C 13,9 C
11.09.2012 21:09 13,8 C 79 % 1012,7 hPa 0,0 l/m 10,2 km/h (2 Bft) W 280 0 min 10,2 C 11,7 C
11.09.2012 21:14 13,7 C 79 % 1012,7 hPa 0,0 l/m 9,3 km/h (2 Bft) NW 305 0 min 10,1 C 12,0 C
11.09.2012 21:19 13,6 C 79 % 1012,7 hPa 0,0 l/m 9,7 km/h (2 Bft) NW 325 0 min 10,0 C 11,7 C
11.09.2012 21:24 13,4 C 80 % 1012,7 hPa 0,0 l/m 8,9 km/h (2 Bft) W-NW 290 0 min 10,0 C 11,9 C
11.09.2012 21:28 13,4 C 80 % 1012,7 hPa 0,0 l/m 7,7 km/h (2 Bft) W-NW 285 0 min 10,0 C 12,6 C
11.09.2012 21:33 13,4 C 81 % 1012,7 hPa 0,0 l/m 11,0 km/h (2 Bft) W 280 0 min 10,2 C 10,9 C
11.09.2012 21:38 13,5 C 81 % 1012,7 hPa 0,0 l/m 12,1 km/h (2 Bft) W-NW 285 0 min 10,3 C 10,5 C
11.09.2012 21:44 13,4 C 81 % 1012,7 hPa 0,0 l/m 7,9 km/h (2 Bft) W-NW 295 0 min 10,2 C 12,5 C
11.09.2012 21:49 13,4 C 81 % 1012,7 hPa 0,0 l/m 9,8 km/h (2 Bft) W-NW 300 0 min 10,2 C 11,5 C
11.09.2012 21:54 13,4 C 81 % 1012,7 hPa 0,0 l/m 1,1 km/h (1 Bft) W-NW 285 0 min 10,2 C 13,4 C
11.09.2012 21:59 13,4 C 81 % 1012,7 hPa 0,0 l/m 8,6 km/h (2 Bft) NW 310 0 min 10,2 C 12,1 C
11.09.2012 22:04 13,4 C 81 % 1012,7 hPa 0,0 l/m 7,0 km/h (2 Bft) W 265 0 min 10,2 C 13,0 C
11.09.2012 22:08 13,3 C 81 % 1012,7 hPa 0,0 l/m 8,5 km/h (2 Bft) NW 315 0 min 10,1 C 12,0 C
11.09.2012 22:13 13,3 C 81 % 1012,7 hPa 0,0 l/m 6,5 km/h (2 Bft) W-NW 295 0 min 10,1 C 13,3 C
11.09.2012 22:18 13,4 C 80 % 1012,7 hPa 0,0 l/m 6,3 km/h (2 Bft) W 270 0 min 10,0 C 13,4 C
11.09.2012 22:24 13,4 C 80 % 1012,7 hPa 0,0 l/m 6,1 km/h (2 Bft) W 260 0 min 10,0 C 13,4 C
11.09.2012 22:29 13,3 C 80 % 1012,7 hPa 0,0 l/m 0,6 km/h (0 Bft) W-SW 255 0 min 9,9 C 13,3 C
11.09.2012 22:34 13,4 C 80 % 1012,7 hPa 0,0 l/m 7,2 km/h (2 Bft) W-SW 255 0 min 10,0 C 12,9 C
11.09.2012 22:39 13,4 C 80 % 1012,7 hPa 0,0 l/m 8,6 km/h (2 Bft) W-NW 285 0 min 10,0 C 12,1 C
11.09.2012 22:43 13,3 C 80 % 1012,7 hPa 0,0 l/m 6,8 km/h (2 Bft) W 270 0 min 9,9 C 13,1 C
11.09.2012 22:48 13,2 C 81 % 1012,7 hPa 0,0 l/m 4,9 km/h (1 Bft) W 270 0 min 10,0 C 13,2 C
11.09.2012 22:53 13,2 C 80 % 1012,7 hPa 0,0 l/m 5,4 km/h (1 Bft) W 270 0 min 9,8 C 13,2 C
11.09.2012 22:59 13,2 C 81 % 1012,7 hPa 0,0 l/m 13,2 km/h (3 Bft) NW 315 0 min 10,0 C 9,7 C
11.09.2012 23:04 13,2 C 80 % 1013,7 hPa 0,0 l/m 12,4 km/h (3 Bft) NW 305 0 min 9,8 C 10,0 C
11.09.2012 23:09 13,1 C 80 % 1012,7 hPa 0,0 l/m 11,1 km/h (2 Bft) W-NW 300 0 min 9,7 C 10,5 C
11.09.2012 23:14 13,1 C 79 % 1012,7 hPa 0,0 l/m 10,3 km/h (2 Bft) NW 305 0 min 9,5 C 10,9 C
11.09.2012 23:19 13,1 C 79 % 1012,7 hPa 0,0 l/m 1,2 km/h (1 Bft) W-NW 285 0 min 9,5 C 13,1 C
11.09.2012 23:23 13,1 C 78 % 1012,7 hPa 0,0 l/m 0,5 km/h (0 Bft) SW 235 0 min 9,4 C 13,1 C
11.09.2012 23:28 13,1 C 78 % 1012,7 hPa 0,0 l/m 0,4 km/h (0 Bft) W-SW 240 0 min 9,4 C 13,1 C
11.09.2012 23:34 13,1 C 77 % 1013,7 hPa 0,0 l/m 5,4 km/h (1 Bft) W-SW 240 0 min 9,2 C 13,1 C
11.09.2012 23:39 13,1 C 77 % 1013,7 hPa 0,0 l/m 1,0 km/h (0 Bft) W-SW 255 0 min 9,2 C 13,1 C
11.09.2012 23:44 13,1 C 76 % 1013,7 hPa 0,0 l/m 0,3 km/h (0 Bft) W 260 0 min 9,0 C 13,1 C
11.09.2012 23:49 13,1 C 76 % 1013,7 hPa 0,0 l/m 0,2 km/h (0 Bft) W 275 0 min 9,0 C 13,1 C
11.09.2012 23:54 13,1 C 76 % 1013,7 hPa 0,0 l/m 6,0 km/h (2 Bft) W 260 0 min 9,0 C 13,1 C
11.09.2012 23:58 13,1 C 76 % 1013,7 hPa 0,0 l/m 3,2 km/h (1 Bft) W-SW 240 0 min 9,0 C 13,1 C
_ Min-Zeit 00:03 17:18 15:14 - 00:03 - - - 01:04 18:59
Minimum _ 0,0 C 52 % 1010,7 hPa - 0,0 km/h (0 Bft) - - - 6,3 C 8,9 C
_ Max-Zeit 14:09 21:33 00:03 09:04 17:48 - - 00:03 13:39 14:09
Maximum _ 24,9 C 81 % 1014,7 hPa 1,1 l/m 37,3 km/h
N (5 Bft)
- - 0 min 16,5 C 24,0 C
Durchschnitt _ 16,6 C 68 % 1012,8 hPa #3,2 l/m 7,2 km/h (2 Bft) N - #0 min. 10,5 C 15,4 C